sensor_id;sensor_type;location;lat;lon;timestamp;pressure;altitude;pressure_sealevel;temperature;humidity
20628;BME280;10473;42.734;24.258;2023-04-23T00:00:13;91840.47;;;8.27;80.02
20628;BME280;10473;42.734;24.258;2023-04-23T00:02:43;91840.31;;;8.20;80.35
20628;BME280;10473;42.734;24.258;2023-04-23T00:05:12;91837.13;;;8.30;80.11
20628;BME280;10473;42.734;24.258;2023-04-23T00:07:43;91828.00;;;8.05;80.42
20628;BME280;10473;42.734;24.258;2023-04-23T00:10:11;91830.13;;;8.18;79.94
20628;BME280;10473;42.734;24.258;2023-04-23T00:12:40;91835.59;;;8.29;79.37
20628;BME280;10473;42.734;24.258;2023-04-23T00:15:10;91827.28;;;8.27;78.67
20628;BME280;10473;42.734;24.258;2023-04-23T00:17:38;91836.84;;;8.35;78.64
20628;BME280;10473;42.734;24.258;2023-04-23T00:20:07;91826.13;;;8.24;78.53
20628;BME280;10473;42.734;24.258;2023-04-23T00:22:35;91831.44;;;8.28;78.30
20628;BME280;10473;42.734;24.258;2023-04-23T00:25:05;91832.91;;;8.25;78.38
20628;BME280;10473;42.734;24.258;2023-04-23T00:27:33;91824.44;;;7.75;79.65
20628;BME280;10473;42.734;24.258;2023-04-23T00:30:01;91834.91;;;7.90;80.63
20628;BME280;10473;42.734;24.258;2023-04-23T00:32:30;91828.66;;;7.98;79.91
20628;BME280;10473;42.734;24.258;2023-04-23T00:34:57;91821.53;;;7.80;80.33
20628;BME280;10473;42.734;24.258;2023-04-23T00:37:26;91827.06;;;7.94;79.79
20628;BME280;10473;42.734;24.258;2023-04-23T00:39:53;91822.91;;;7.93;78.88
20628;BME280;10473;42.734;24.258;2023-04-23T00:42:23;91823.47;;;7.83;79.86
20628;BME280;10473;42.734;24.258;2023-04-23T00:44:52;91827.69;;;7.87;79.13
20628;BME280;10473;42.734;24.258;2023-04-23T00:47:21;91831.78;;;7.85;79.32
20628;BME280;10473;42.734;24.258;2023-04-23T00:49:49;91827.34;;;7.89;79.11
20628;BME280;10473;42.734;24.258;2023-04-23T00:52:18;91832.84;;;7.80;78.51
20628;BME280;10473;42.734;24.258;2023-04-23T00:54:46;91829.66;;;7.71;79.58
20628;BME280;10473;42.734;24.258;2023-04-23T00:57:14;91825.16;;;7.72;78.70
20628;BME280;10473;42.734;24.258;2023-04-23T00:59:43;91839.31;;;7.45;79.49
20628;BME280;10473;42.734;24.258;2023-04-23T01:02:12;91837.06;;;7.66;79.21
20628;BME280;10473;42.734;24.258;2023-04-23T01:04:42;91831.41;;;7.64;78.49
20628;BME280;10473;42.734;24.258;2023-04-23T01:07:10;91829.59;;;7.68;78.90
20628;BME280;10473;42.734;24.258;2023-04-23T01:09:39;91828.81;;;7.67;78.00
20628;BME280;10473;42.734;24.258;2023-04-23T01:12:08;91829.53;;;7.64;78.24
20628;BME280;10473;42.734;24.258;2023-04-23T01:14:37;91830.28;;;7.65;78.36
20628;BME280;10473;42.734;24.258;2023-04-23T01:17:06;91822.09;;;7.51;78.06
20628;BME280;10473;42.734;24.258;2023-04-23T01:19:34;91825.91;;;7.53;78.39
20628;BME280;10473;42.734;24.258;2023-04-23T01:22:08;91824.72;;;7.51;78.65
20628;BME280;10473;42.734;24.258;2023-04-23T01:24:36;91817.19;;;7.49;78.24
20628;BME280;10473;42.734;24.258;2023-04-23T01:27:04;91814.75;;;7.60;77.94
20628;BME280;10473;42.734;24.258;2023-04-23T01:29:33;91818.66;;;7.47;78.18
20628;BME280;10473;42.734;24.258;2023-04-23T01:32:01;91824.47;;;7.37;78.54
20628;BME280;10473;42.734;24.258;2023-04-23T01:34:29;91823.91;;;7.28;78.79
20628;BME280;10473;42.734;24.258;2023-04-23T01:36:58;91825.56;;;7.17;79.65
20628;BME280;10473;42.734;24.258;2023-04-23T01:39:27;91822.66;;;7.22;79.00
20628;BME280;10473;42.734;24.258;2023-04-23T01:41:55;91825.63;;;7.01;79.86
20628;BME280;10473;42.734;24.258;2023-04-23T01:44:24;91824.94;;;7.23;79.30
20628;BME280;10473;42.734;24.258;2023-04-23T01:46:52;91826.28;;;6.98;79.31
20628;BME280;10473;42.734;24.258;2023-04-23T01:49:20;91824.75;;;7.13;78.90
20628;BME280;10473;42.734;24.258;2023-04-23T01:51:48;91819.31;;;7.06;78.66
20628;BME280;10473;42.734;24.258;2023-04-23T01:54:15;91826.81;;;7.04;79.17
20628;BME280;10473;42.734;24.258;2023-04-23T01:56:44;91822.06;;;6.94;79.33
20628;BME280;10473;42.734;24.258;2023-04-23T01:59:12;91830.66;;;6.91;79.06
20628;BME280;10473;42.734;24.258;2023-04-23T02:01:41;91831.03;;;7.08;78.92
20628;BME280;10473;42.734;24.258;2023-04-23T02:04:11;91834.28;;;6.67;79.30
20628;BME280;10473;42.734;24.258;2023-04-23T02:06:39;91825.25;;;6.84;79.84
20628;BME280;10473;42.734;24.258;2023-04-23T02:09:07;91833.44;;;6.98;78.55
20628;BME280;10473;42.734;24.258;2023-04-23T02:11:35;91832.53;;;6.90;78.27
20628;BME280;10473;42.734;24.258;2023-04-23T02:14:05;91834.13;;;6.95;78.33
20628;BME280;10473;42.734;24.258;2023-04-23T02:16:33;91825.56;;;6.98;78.14
20628;BME280;10473;42.734;24.258;2023-04-23T02:19:01;91837.25;;;7.00;78.34
20628;BME280;10473;42.734;24.258;2023-04-23T02:21:29;91834.25;;;7.02;78.06
20628;BME280;10473;42.734;24.258;2023-04-23T02:23:56;91831.28;;;7.03;77.93
20628;BME280;10473;42.734;24.258;2023-04-23T02:26:24;91811.91;;;6.77;78.44
20628;BME280;10473;42.734;24.258;2023-04-23T02:28:52;91831.13;;;6.62;79.37
20628;BME280;10473;42.734;24.258;2023-04-23T02:31:21;91824.81;;;6.82;78.35
20628;BME280;10473;42.734;24.258;2023-04-23T02:33:49;91825.31;;;6.87;78.91
20628;BME280;10473;42.734;24.258;2023-04-23T02:36:17;91829.41;;;6.69;78.89
20628;BME280;10473;42.734;24.258;2023-04-23T02:38:44;91830.00;;;6.78;78.82
20628;BME280;10473;42.734;24.258;2023-04-23T02:41:14;91828.63;;;6.84;78.45
20628;BME280;10473;42.734;24.258;2023-04-23T02:43:42;91823.81;;;6.71;78.65
20628;BME280;10473;42.734;24.258;2023-04-23T02:46:09;91825.34;;;6.72;79.52
20628;BME280;10473;42.734;24.258;2023-04-23T02:48:39;91829.41;;;6.85;79.12
20628;BME280;10473;42.734;24.258;2023-04-23T02:51:10;91830.91;;;6.86;78.32
20628;BME280;10473;42.734;24.258;2023-04-23T02:53:38;91825.59;;;6.67;78.99
20628;BME280;10473;42.734;24.258;2023-04-23T02:56:05;91835.44;;;6.85;79.17
20628;BME280;10473;42.734;24.258;2023-04-23T02:58:34;91830.00;;;6.78;78.78
20628;BME280;10473;42.734;24.258;2023-04-23T03:01:03;91839.19;;;6.69;78.44
20628;BME280;10473;42.734;24.258;2023-04-23T03:03:32;91821.97;;;6.56;79.30
20628;BME280;10473;42.734;24.258;2023-04-23T03:06:04;91838.16;;;6.73;79.00
20628;BME280;10473;42.734;24.258;2023-04-23T03:08:33;91831.81;;;6.59;78.90
20628;BME280;10473;42.734;24.258;2023-04-23T03:11:00;91836.56;;;6.38;79.81
20628;BME280;10473;42.734;24.258;2023-04-23T03:13:28;91837.84;;;6.59;79.40
20628;BME280;10473;42.734;24.258;2023-04-23T03:15:56;91834.88;;;6.61;79.18
20628;BME280;10473;42.734;24.258;2023-04-23T03:18:25;91844.47;;;6.53;79.08
20628;BME280;10473;42.734;24.258;2023-04-23T03:20:54;91838.47;;;6.53;79.76
20628;BME280;10473;42.734;24.258;2023-04-23T03:23:23;91840.97;;;6.65;78.38
20628;BME280;10473;42.734;24.258;2023-04-23T03:25:51;91849.31;;;6.36;80.22
20628;BME280;10473;42.734;24.258;2023-04-23T03:28:18;91844.41;;;6.50;79.24
20628;BME280;10473;42.734;24.258;2023-04-23T03:30:46;91840.06;;;6.57;79.38
20628;BME280;10473;42.734;24.258;2023-04-23T03:33:14;91830.97;;;6.39;79.74
20628;BME280;10473;42.734;24.258;2023-04-23T03:35:42;91834.66;;;6.50;79.17
20628;BME280;10473;42.734;24.258;2023-04-23T03:38:14;91842.53;;;6.19;80.19
20628;BME280;10473;42.734;24.258;2023-04-23T03:40:44;91849.72;;;6.38;79.64
20628;BME280;10473;42.734;24.258;2023-04-23T03:43:12;91855.34;;;6.36;79.91
20628;BME280;10473;42.734;24.258;2023-04-23T03:45:58;91848.81;;;6.46;79.96
20628;BME280;10473;42.734;24.258;2023-04-23T03:48:28;91854.84;;;6.31;80.27
20628;BME280;10473;42.734;24.258;2023-04-23T03:50:59;91852.34;;;6.07;80.96
20628;BME280;10473;42.734;24.258;2023-04-23T03:53:44;91858.25;;;6.31;81.18
20628;BME280;10473;42.734;24.258;2023-04-23T03:56:35;91865.09;;;6.36;80.94
20628;BME280;10473;42.734;24.258;2023-04-23T03:59:14;91859.31;;;6.46;79.81
20628;BME280;10473;42.734;24.258;2023-04-23T04:01:43;91863.34;;;6.55;79.50
20628;BME280;10473;42.734;24.258;2023-04-23T04:04:11;91867.97;;;6.62;78.99
20628;BME280;10473;42.734;24.258;2023-04-23T04:06:39;91872.81;;;6.44;79.89
20628;BME280;10473;42.734;24.258;2023-04-23T04:09:06;91877.69;;;6.58;79.15
20628;BME280;10473;42.734;24.258;2023-04-23T04:11:35;91876.31;;;6.64;79.04
20628;BME280;10473;42.734;24.258;2023-04-23T04:14:03;91868.81;;;6.66;79.35
20628;BME280;10473;42.734;24.258;2023-04-23T04:16:31;91876.72;;;6.66;79.20
20628;BME280;10473;42.734;24.258;2023-04-23T04:18:58;91879.59;;;6.76;79.01
20628;BME280;10473;42.734;24.258;2023-04-23T04:21:27;91884.69;;;6.85;79.54
20628;BME280;10473;42.734;24.258;2023-04-23T04:23:55;91894.63;;;6.91;79.88
20628;BME280;10473;42.734;24.258;2023-04-23T04:26:23;91880.06;;;7.13;79.17
20628;BME280;10473;42.734;24.258;2023-04-23T04:28:52;91888.81;;;7.36;79.32
20628;BME280;10473;42.734;24.258;2023-04-23T04:31:19;91898.25;;;7.56;78.79
20628;BME280;10473;42.734;24.258;2023-04-23T04:33:47;91903.69;;;7.82;78.53
20628;BME280;10473;42.734;24.258;2023-04-23T04:36:17;91904.22;;;8.10;77.26
20628;BME280;10473;42.734;24.258;2023-04-23T04:38:44;91906.56;;;8.15;76.40
20628;BME280;10473;42.734;24.258;2023-04-23T04:41:16;91900.44;;;8.49;75.79
20628;BME280;10473;42.734;24.258;2023-04-23T04:43:45;91904.66;;;8.76;75.55
20628;BME280;10473;42.734;24.258;2023-04-23T04:46:16;91908.34;;;8.94;74.60
20628;BME280;10473;42.734;24.258;2023-04-23T04:48:45;91906.84;;;9.19;72.80
20628;BME280;10473;42.734;24.258;2023-04-23T04:51:12;91914.78;;;9.45;70.38
20628;BME280;10473;42.734;24.258;2023-04-23T04:53:40;91912.00;;;9.64;69.97
20628;BME280;10473;42.734;24.258;2023-04-23T04:56:08;91917.50;;;9.78;70.17
20628;BME280;10473;42.734;24.258;2023-04-23T04:58:36;91914.78;;;10.04;69.86
20628;BME280;10473;42.734;24.258;2023-04-23T05:01:04;91922.63;;;10.26;68.80
20628;BME280;10473;42.734;24.258;2023-04-23T05:03:33;91921.63;;;10.38;69.08
20628;BME280;10473;42.734;24.258;2023-04-23T05:06:02;91914.38;;;10.71;68.91
20628;BME280;10473;42.734;24.258;2023-04-23T05:08:30;91920.28;;;10.98;68.09
20628;BME280;10473;42.734;24.258;2023-04-23T05:10:57;91925.22;;;10.96;66.22
20628;BME280;10473;42.734;24.258;2023-04-23T05:13:26;91924.34;;;11.32;65.66
20628;BME280;10473;42.734;24.258;2023-04-23T05:15:54;91919.91;;;11.50;66.92
20628;BME280;10473;42.734;24.258;2023-04-23T05:18:22;91926.84;;;11.61;66.83
20628;BME280;10473;42.734;24.258;2023-04-23T05:20:51;91926.97;;;11.82;66.18
20628;BME280;10473;42.734;24.258;2023-04-23T05:23:20;91929.38;;;12.08;65.75
20628;BME280;10473;42.734;24.258;2023-04-23T05:25:47;91937.41;;;12.29;63.94
20628;BME280;10473;42.734;24.258;2023-04-23T05:28:18;91931.78;;;12.45;64.31
20628;BME280;10473;42.734;24.258;2023-04-23T05:30:45;91941.34;;;12.70;63.99
20628;BME280;10473;42.734;24.258;2023-04-23T05:33:13;91943.28;;;12.91;63.56
20628;BME280;10473;42.734;24.258;2023-04-23T05:35:41;91949.00;;;12.93;64.15
20628;BME280;10473;42.734;24.258;2023-04-23T05:38:10;91949.06;;;13.17;63.38
20628;BME280;10473;42.734;24.258;2023-04-23T05:40:38;91946.34;;;12.93;61.01
20628;BME280;10473;42.734;24.258;2023-04-23T05:43:06;91947.94;;;13.43;61.97
20628;BME280;10473;42.734;24.258;2023-04-23T05:45:33;91948.66;;;13.71;61.55
20628;BME280;10473;42.734;24.258;2023-04-23T05:48:01;91943.28;;;13.96;60.00
20628;BME280;10473;42.734;24.258;2023-04-23T05:50:29;91944.78;;;14.21;59.80
20628;BME280;10473;42.734;24.258;2023-04-23T05:53:00;91947.03;;;14.30;57.81
20628;BME280;10473;42.734;24.258;2023-04-23T05:55:29;91944.28;;;14.47;55.96
20628;BME280;10473;42.734;24.258;2023-04-23T05:57:56;91945.50;;;14.36;56.30
20628;BME280;10473;42.734;24.258;2023-04-23T06:00:24;91950.75;;;14.50;57.11
20628;BME280;10473;42.734;24.258;2023-04-23T06:02:52;91943.88;;;14.59;56.17
20628;BME280;10473;42.734;24.258;2023-04-23T06:05:20;91950.97;;;14.87;56.26
20628;BME280;10473;42.734;24.258;2023-04-23T06:07:47;91955.13;;;14.95;56.41
20628;BME280;10473;42.734;24.258;2023-04-23T06:10:15;91947.41;;;15.11;55.68
20628;BME280;10473;42.734;24.258;2023-04-23T06:12:44;91944.97;;;15.30;55.02
20628;BME280;10473;42.734;24.258;2023-04-23T06:15:12;91954.41;;;15.49;55.40
20628;BME280;10473;42.734;24.258;2023-04-23T06:17:39;91950.09;;;15.62;55.60
20628;BME280;10473;42.734;24.258;2023-04-23T06:20:08;91950.16;;;15.55;55.10
20628;BME280;10473;42.734;24.258;2023-04-23T06:22:37;91947.63;;;15.37;55.56
20628;BME280;10473;42.734;24.258;2023-04-23T06:25:05;91954.22;;;15.70;55.04
20628;BME280;10473;42.734;24.258;2023-04-23T06:27:33;91953.38;;;15.80;55.33
20628;BME280;10473;42.734;24.258;2023-04-23T06:30:09;91963.03;;;15.67;55.21
20628;BME280;10473;42.734;24.258;2023-04-23T06:32:37;91959.16;;;15.75;55.21
20628;BME280;10473;42.734;24.258;2023-04-23T06:35:05;91955.09;;;15.60;55.60
20628;BME280;10473;42.734;24.258;2023-04-23T06:37:33;91943.28;;;15.57;56.37
20628;BME280;10473;42.734;24.258;2023-04-23T06:40:01;91954.50;;;15.82;55.46
20628;BME280;10473;42.734;24.258;2023-04-23T06:42:29;91944.00;;;16.02;56.92
20628;BME280;10473;42.734;24.258;2023-04-23T06:45:20;91951.19;;;16.08;55.67
20628;BME280;10473;42.734;24.258;2023-04-23T06:47:48;91952.75;;;15.62;54.69
20628;BME280;10473;42.734;24.258;2023-04-23T06:50:19;91949.91;;;15.39;55.16
20628;BME280;10473;42.734;24.258;2023-04-23T06:52:49;91957.34;;;15.07;56.45
20628;BME280;10473;42.734;24.258;2023-04-23T06:55:26;91943.88;;;14.59;56.65
20628;BME280;10473;42.734;24.258;2023-04-23T06:57:56;91948.84;;;14.54;57.48
20628;BME280;10473;42.734;24.258;2023-04-23T07:00:25;91952.72;;;14.35;57.27
20628;BME280;10473;42.734;24.258;2023-04-23T07:02:53;91950.00;;;14.53;57.58
20628;BME280;10473;42.734;24.258;2023-04-23T07:05:21;91948.47;;;14.45;57.71
20628;BME280;10473;42.734;24.258;2023-04-23T07:07:49;91941.50;;;14.75;56.46
20628;BME280;10473;42.734;24.258;2023-04-23T07:10:17;91941.06;;;14.87;56.96
20628;BME280;10473;42.734;24.258;2023-04-23T07:12:45;91947.69;;;14.58;56.37
20628;BME280;10473;42.734;24.258;2023-04-23T07:15:13;91949.97;;;14.56;56.87
20628;BME280;10473;42.734;24.258;2023-04-23T07:17:42;91955.19;;;14.84;57.48
20628;BME280;10473;42.734;24.258;2023-04-23T07:20:10;91951.34;;;14.85;58.75
20628;BME280;10473;42.734;24.258;2023-04-23T07:22:38;91956.50;;;15.17;58.90
20628;BME280;10473;42.734;24.258;2023-04-23T07:25:06;91954.75;;;14.89;55.89
20628;BME280;10473;42.734;24.258;2023-04-23T07:27:34;91937.50;;;15.08;56.38
20628;BME280;10473;42.734;24.258;2023-04-23T07:30:03;91942.28;;;15.30;56.08
20628;BME280;10473;42.734;24.258;2023-04-23T07:32:31;91953.50;;;15.08;54.84
20628;BME280;10473;42.734;24.258;2023-04-23T07:35:00;91946.84;;;15.37;53.73
20628;BME280;10473;42.734;24.258;2023-04-23T07:37:27;91950.06;;;15.69;53.45
20628;BME280;10473;42.734;24.258;2023-04-23T07:39:55;91949.03;;;15.93;53.29
20628;BME280;10473;42.734;24.258;2023-04-23T07:42:23;91946.50;;;16.19;51.75
20628;BME280;10473;42.734;24.258;2023-04-23T07:44:50;91948.28;;;16.33;51.82
20628;BME280;10473;42.734;24.258;2023-04-23T07:47:18;91947.31;;;16.16;51.11
20628;BME280;10473;42.734;24.258;2023-04-23T07:49:46;91944.97;;;16.18;50.23
20628;BME280;10473;42.734;24.258;2023-04-23T07:52:17;91942.16;;;16.32;49.44
20628;BME280;10473;42.734;24.258;2023-04-23T07:54:45;91942.50;;;16.38;50.26
20628;BME280;10473;42.734;24.258;2023-04-23T07:57:13;91948.09;;;16.13;50.67
20628;BME280;10473;42.734;24.258;2023-04-23T07:59:41;91940.25;;;15.96;51.94
20628;BME280;10473;42.734;24.258;2023-04-23T08:02:09;91946.28;;;16.03;51.91
20628;BME280;10473;42.734;24.258;2023-04-23T08:04:38;91944.47;;;15.93;51.45
20628;BME280;10473;42.734;24.258;2023-04-23T08:07:05;91946.09;;;15.84;52.06
20628;BME280;10473;42.734;24.258;2023-04-23T08:09:34;91940.19;;;16.03;52.32
20628;BME280;10473;42.734;24.258;2023-04-23T08:12:02;91942.81;;;16.06;52.10
20628;BME280;10473;42.734;24.258;2023-04-23T08:14:30;91937.97;;;16.31;51.24
20628;BME280;10473;42.734;24.258;2023-04-23T08:17:00;91932.88;;;16.07;51.79
20628;BME280;10473;42.734;24.258;2023-04-23T08:19:28;91937.34;;;16.20;52.62
20628;BME280;10473;42.734;24.258;2023-04-23T08:21:58;91938.06;;;16.21;50.49
20628;BME280;10473;42.734;24.258;2023-04-23T08:24:26;91936.47;;;16.27;51.28
20628;BME280;10473;42.734;24.258;2023-04-23T08:26:55;91939.25;;;16.20;51.37
20628;BME280;10473;42.734;24.258;2023-04-23T08:29:23;91933.47;;;16.25;50.15
20628;BME280;10473;42.734;24.258;2023-04-23T08:31:51;91935.22;;;16.38;49.16
20628;BME280;10473;42.734;24.258;2023-04-23T08:34:18;91938.53;;;16.53;48.77
20628;BME280;10473;42.734;24.258;2023-04-23T08:36:46;91941.09;;;16.90;49.99
20628;BME280;10473;42.734;24.258;2023-04-23T08:39:14;91938.63;;;17.02;48.07
20628;BME280;10473;42.734;24.258;2023-04-23T08:41:46;91944.59;;;17.13;46.78
20628;BME280;10473;42.734;24.258;2023-04-23T08:44:18;91939.09;;;17.24;48.42
20628;BME280;10473;42.734;24.258;2023-04-23T08:46:47;91933.34;;;16.99;46.53
20628;BME280;10473;42.734;24.258;2023-04-23T08:49:16;91932.13;;;16.73;46.94
20628;BME280;10473;42.734;24.258;2023-04-23T08:51:48;91918.69;;;16.50;45.30
20628;BME280;10473;42.734;24.258;2023-04-23T08:54:21;91915.97;;;16.54;44.90
20628;BME280;10473;42.734;24.258;2023-04-23T08:56:51;91918.19;;;16.22;46.12
20628;BME280;10473;42.734;24.258;2023-04-23T08:59:20;91932.94;;;16.37;45.09
20628;BME280;10473;42.734;24.258;2023-04-23T09:01:48;91922.75;;;16.25;45.53
20628;BME280;10473;42.734;24.258;2023-04-23T09:04:16;91929.13;;;16.34;45.96
20628;BME280;10473;42.734;24.258;2023-04-23T09:06:45;91913.56;;;16.26;45.15
20628;BME280;10473;42.734;24.258;2023-04-23T09:09:14;91921.81;;;16.45;45.88
20628;BME280;10473;42.734;24.258;2023-04-23T09:11:43;91918.59;;;16.57;43.90
20628;BME280;10473;42.734;24.258;2023-04-23T09:14:11;91914.22;;;16.37;46.15
20628;BME280;10473;42.734;24.258;2023-04-23T09:16:41;91915.91;;;16.24;47.10
20628;BME280;10473;42.734;24.258;2023-04-23T09:19:10;91912.41;;;16.30;47.10
20628;BME280;10473;42.734;24.258;2023-04-23T09:21:38;91924.44;;;16.49;45.44
20628;BME280;10473;42.734;24.258;2023-04-23T09:24:09;91908.16;;;16.33;45.96
20628;BME280;10473;42.734;24.258;2023-04-23T09:26:43;91913.47;;;16.36;45.58
20628;BME280;10473;42.734;24.258;2023-04-23T09:29:13;91909.88;;;16.50;47.38
20628;BME280;10473;42.734;24.258;2023-04-23T09:31:45;91909.03;;;16.23;47.92
20628;BME280;10473;42.734;24.258;2023-04-23T09:34:16;91907.44;;;16.29;47.09
20628;BME280;10473;42.734;24.258;2023-04-23T09:36:45;91914.69;;;16.62;47.05
20628;BME280;10473;42.734;24.258;2023-04-23T09:39:13;91914.75;;;16.58;47.26
20628;BME280;10473;42.734;24.258;2023-04-23T09:41:42;91909.53;;;16.48;46.86
20628;BME280;10473;42.734;24.258;2023-04-23T09:44:11;91909.41;;;16.25;47.22
20628;BME280;10473;42.734;24.258;2023-04-23T09:46:40;91913.44;;;16.40;46.44
20628;BME280;10473;42.734;24.258;2023-04-23T09:49:11;91905.75;;;16.45;47.07
20628;BME280;10473;42.734;24.258;2023-04-23T09:51:39;91905.06;;;16.38;47.05
20628;BME280;10473;42.734;24.258;2023-04-23T09:54:11;91909.84;;;16.20;46.21
20628;BME280;10473;42.734;24.258;2023-04-23T09:56:39;91905.28;;;16.17;46.72
20628;BME280;10473;42.734;24.258;2023-04-23T09:59:19;91911.97;;;16.35;46.46
20628;BME280;10473;42.734;24.258;2023-04-23T10:01:46;91911.84;;;16.46;46.90
20628;BME280;10473;42.734;24.258;2023-04-23T10:04:18;91910.72;;;16.43;45.97
20628;BME280;10473;42.734;24.258;2023-04-23T10:06:47;91906.16;;;16.44;45.18
20628;BME280;10473;42.734;24.258;2023-04-23T10:09:15;91908.00;;;16.47;46.89
20628;BME280;10473;42.734;24.258;2023-04-23T10:11:48;91902.75;;;16.40;46.59
20628;BME280;10473;42.734;24.258;2023-04-23T10:14:18;91905.16;;;16.27;44.98
20628;BME280;10473;42.734;24.258;2023-04-23T10:16:46;91897.19;;;16.24;45.98
20628;BME280;10473;42.734;24.258;2023-04-23T10:19:20;91898.41;;;16.16;48.05
20628;BME280;10473;42.734;24.258;2023-04-23T10:21:52;91893.06;;;16.16;47.29
20628;BME280;10473;42.734;24.258;2023-04-23T10:24:22;91901.66;;;16.34;48.91
20628;BME280;10473;42.734;24.258;2023-04-23T10:26:50;91906.53;;;16.42;49.15
20628;BME280;10473;42.734;24.258;2023-04-23T10:29:25;91897.09;;;16.31;51.41
20628;BME280;10473;42.734;24.258;2023-04-23T10:31:55;91890.41;;;16.49;51.28
20628;BME280;10473;42.734;24.258;2023-04-23T10:34:25;91883.63;;;16.41;48.45
20628;BME280;10473;42.734;24.258;2023-04-23T10:36:55;91888.81;;;16.55;48.16
20628;BME280;10473;42.734;24.258;2023-04-23T10:39:27;91896.16;;;16.78;46.07
20628;BME280;10473;42.734;24.258;2023-04-23T10:41:55;91895.88;;;16.99;45.86
20628;BME280;10473;42.734;24.258;2023-04-23T10:44:31;91897.97;;;17.11;45.77
20628;BME280;10473;42.734;24.258;2023-04-23T10:46:59;91888.53;;;17.03;45.52
20628;BME280;10473;42.734;24.258;2023-04-23T10:49:31;91888.16;;;17.01;45.18
20628;BME280;10473;42.734;24.258;2023-04-23T10:52:00;91886.22;;;17.05;44.78
20628;BME280;10473;42.734;24.258;2023-04-23T10:54:29;91884.94;;;17.13;45.62
20628;BME280;10473;42.734;24.258;2023-04-23T10:56:59;91878.22;;;17.28;47.46
20628;BME280;10473;42.734;24.258;2023-04-23T10:59:29;91884.69;;;17.30;44.88
20628;BME280;10473;42.734;24.258;2023-04-23T11:01:57;91887.50;;;17.20;45.27
20628;BME280;10473;42.734;24.258;2023-04-23T11:04:27;91882.53;;;17.22;44.54
20628;BME280;10473;42.734;24.258;2023-04-23T11:07:04;91881.03;;;17.44;43.62
20628;BME280;10473;42.734;24.258;2023-04-23T11:09:37;91880.03;;;17.34;45.03
20628;BME280;10473;42.734;24.258;2023-04-23T11:12:07;91881.53;;;17.35;44.45
20628;BME280;10473;42.734;24.258;2023-04-23T11:14:45;91870.31;;;16.68;47.43
20628;BME280;10473;42.734;24.258;2023-04-23T11:17:14;91865.25;;;16.10;48.20
20628;BME280;10473;42.734;24.258;2023-04-23T11:20:06;91870.84;;;16.22;50.28
20628;BME280;10473;42.734;24.258;2023-04-23T11:22:38;91865.03;;;15.97;49.16
20628;BME280;10473;42.734;24.258;2023-04-23T11:25:08;91870.84;;;15.89;49.28
20628;BME280;10473;42.734;24.258;2023-04-23T11:27:38;91872.75;;;15.88;49.32
20628;BME280;10473;42.734;24.258;2023-04-23T11:30:10;91874.75;;;15.81;49.43
20628;BME280;10473;42.734;24.258;2023-04-23T11:32:38;91879.72;;;15.79;49.47
20628;BME280;10473;42.734;24.258;2023-04-23T11:35:07;91869.97;;;15.62;49.73
20628;BME280;10473;42.734;24.258;2023-04-23T11:37:39;91876.47;;;15.61;49.98
20628;BME280;10473;42.734;24.258;2023-04-23T11:40:09;91868.38;;;15.68;50.58
20628;BME280;10473;42.734;24.258;2023-04-23T11:42:40;91870.44;;;15.53;51.10
20628;BME280;10473;42.734;24.258;2023-04-23T11:45:16;91873.06;;;15.57;51.51
20628;BME280;10473;42.734;24.258;2023-04-23T11:47:44;91874.44;;;15.28;51.16
20628;BME280;10473;42.734;24.258;2023-04-23T11:50:16;91864.31;;;14.47;52.95
20628;BME280;10473;42.734;24.258;2023-04-23T11:52:46;91872.59;;;14.67;51.94
20628;BME280;10473;42.734;24.258;2023-04-23T11:55:14;91873.53;;;14.94;51.58
20628;BME280;10473;42.734;24.258;2023-04-23T11:57:44;91877.34;;;15.00;52.20
20628;BME280;10473;42.734;24.258;2023-04-23T12:00:14;91876.50;;;15.06;51.86
20628;BME280;10473;42.734;24.258;2023-04-23T12:02:52;91872.66;;;15.11;51.29
20628;BME280;10473;42.734;24.258;2023-04-23T12:05:21;91849.13;;;14.95;50.86
20628;BME280;10473;42.734;24.258;2023-04-23T12:07:51;91872.31;;;15.05;51.55
20628;BME280;10473;42.734;24.258;2023-04-23T12:10:19;91859.78;;;15.02;51.42
20628;BME280;10473;42.734;24.258;2023-04-23T12:12:50;91860.09;;;14.53;51.53
20628;BME280;10473;42.734;24.258;2023-04-23T12:15:19;91856.25;;;14.58;52.47
20628;BME280;10473;42.734;24.258;2023-04-23T12:17:50;91856.72;;;14.46;53.56
20628;BME280;10473;42.734;24.258;2023-04-23T12:20:18;91852.22;;;14.29;54.74
20628;BME280;10473;42.734;24.258;2023-04-23T12:22:46;91856.44;;;14.19;54.76
20628;BME280;10473;42.734;24.258;2023-04-23T12:25:21;91857.19;;;14.27;54.36
20628;BME280;10473;42.734;24.258;2023-04-23T12:27:49;91849.13;;;14.37;55.11
20628;BME280;10473;42.734;24.258;2023-04-23T12:30:16;91853.00;;;14.22;55.35
20628;BME280;10473;42.734;24.258;2023-04-23T12:32:44;91848.81;;;14.25;57.06
20628;BME280;10473;42.734;24.258;2023-04-23T12:35:11;91843.34;;;14.53;59.18
20628;BME280;10473;42.734;24.258;2023-04-23T12:37:39;91836.03;;;14.64;59.26
20628;BME280;10473;42.734;24.258;2023-04-23T12:40:08;91829.50;;;14.72;56.35
20628;BME280;10473;42.734;24.258;2023-04-23T12:42:37;91836.63;;;14.85;55.10
20628;BME280;10473;42.734;24.258;2023-04-23T12:45:07;91822.59;;;14.78;52.94
20628;BME280;10473;42.734;24.258;2023-04-23T12:47:35;91825.63;;;14.83;53.04
20628;BME280;10473;42.734;24.258;2023-04-23T12:50:03;91821.94;;;14.60;52.85
20628;BME280;10473;42.734;24.258;2023-04-23T12:52:30;91819.56;;;14.76;54.28
20628;BME280;10473;42.734;24.258;2023-04-23T12:54:58;91814.25;;;14.76;53.54
20628;BME280;10473;42.734;24.258;2023-04-23T12:57:26;91811.88;;;14.85;52.20
20628;BME280;10473;42.734;24.258;2023-04-23T12:59:55;91813.34;;;14.93;53.41
20628;BME280;10473;42.734;24.258;2023-04-23T13:02:24;91808.81;;;14.90;50.74